Terminal Aerodrome Forecast
Issued by NWS

Home | Current Version | Previous Version | Text Only | Print | Product List | Glossary On
Versions: 1 2 3 4 5 6 7 8 9 10 11 12 13 14
000
FTUS43 KIWX 262338
TAFSBN
TAF
KSBN 262338Z 2700/2724 34007KT P6SM SCT250
     FM270300 20004KT P6SM SCT250
     FM271000 31005KT P6SM SCT070 BKN150
     FM271600 30011KT P6SM FEW060 SCT200
     FM272200 31007KT P6SM VCSH BKN060=

USA.gov is the U.S. government's official web portal to all federal, state and local government web resources and services.